Saturday, October 20, 2018, 10:43 PM CDT
Back to Local

KMDW, Chicago Midway Airport

Location: Chicago, IL, United States Lat: 41.783
Local Time: 10:43 PM CDT ( 3:43 GMT) Lon: -87.75
Time Zone: US/Central Elev: 620 ft

Show me the last for .
Show Decoded

2018-10-20 21:53 METAR KMDW 210253Z 33011KT 10SM FEW050 02/M08 A3030 RMK AO2 SLP265 T00221078
                 51033 =
2018-10-20 20:53 METAR KMDW 210153Z 33010KT 10SM FEW050 03/M08 A3027 RMK AO2 PK WND 33028/0054
                 SLP258 T00281078 =
2018-10-20 19:53 METAR KMDW 210053Z 33020G25KT 10SM FEW050 04/M08 A3024 RMK AO2 PK WND 32030/0011
                 SLP246 T00391078 =
2018-10-20 18:53 METAR KMDW 202353Z 33019G26KT 10SM FEW050 04/M07 A3020 RMK AO2 PK WND 32030/2303
                 SLP232 60000 T00441067 10072 20033 51053 =
2018-10-20 17:53 METAR KMDW 202253Z 33017G31KT 10SM BKN048 05/M05 A3015 RMK AO2 PK WND 34034/2154
                 SLP213 T00501050 =
2018-10-20 16:53 METAR KMDW 202153Z 33021G37KT 10SM BKN038 BKN044 04/M04 A3011 RMK AO2 PK WND
                 32039/2100 SLP200 T00441039 =
2018-10-20 15:53 METAR KMDW 202053Z 32021G32KT 10SM FEW044 FEW070 SCT100 BKN250 05/M04 A3004 RMK
                 AO2 PK WND 30036/2006 SLP176 60000 T00501044 53048 =
2018-10-20 14:53 METAR KMDW 201953Z 31023G38KT 10SM SCT055 OVC070 04/M06 A2999 RMK AO2 PK WND
                 33048/1854 RAE22SNB1855E22 SLP161 P0000 T00441056 =
2018-10-20 14:09 METAR KMDW 201909Z 32025G39KT 9SM -RASN SCT030 OVC038 04/M02 A2996 RMK AO2 PK
                 WND 33048/1854 SNB1855 P0000 T00391022 =
2018-10-20 13:56 METAR KMDW 201856Z COR 32035G52KT 2 1/2SM -RASN BR BKN035 BKN043 OVC050 05/M01
                 A2995 RMK AO2 PK WND 33048/1854 SNB55 PRESRR P0000 T00501006 =
2018-10-20 13:53 METAR KMDW 201853Z 33033G52KT 10SM -RA BKN040 OVC050 06/M01 A2993 RMK AO2 PK WND
                 33052/1853 RAB00E07B25 SLP140 P0000 T00611011 =
2018-10-20 12:53 METAR KMDW 201753Z 33023G35KT 10SM FEW050 BKN060 BKN075 07/M01 A2989 RMK AO2 PK
                 WND 34040/1730 WSHFT 1724 SLP125 T00721011 10117 20072 53016 =
2018-10-20 12:39 METAR KMDW 201739Z 34022G40KT 10SM FEW048 BKN065 BKN080 07/M01 A2988 RMK AO2 PK
                 WND 34040/1730 WSHFT 1724 T00721011 =
2018-10-20 11:53 METAR KMDW 201653Z 29021G31KT 10SM BKN047 BKN060 11/M01 A2985 RMK AO2 PK WND
                 30033/1619 SLP110 T01111011 =
2018-10-20 10:53 METAR KMDW 201553Z 28024G35KT 10SM SCT040 SCT070 11/00 A2984 RMK AO2 PK WND
                 29035/1552 SLP105 T01110000 =
2018-10-20 09:53 METAR KMDW 201453Z 27017G24KT 10SM FEW070 11/02 A2984 RMK AO2 SLP107 T01060022
                 58005 =
2018-10-20 08:53 METAR KMDW 201353Z 27013KT 10SM FEW070 09/03 A2985 RMK AO2 SLP111 T00890028 =
2018-10-20 07:53 METAR KMDW 201253Z 26012KT 10SM CLR 08/02 A2986 RMK AO2 SLP112 T00780017 =
2018-10-20 06:53 METAR KMDW 201153Z 27009KT 10SM CLR 07/02 A2986 RMK AO2 SLP114 70006 T00720017
                 10100 20072 55001 =
2018-10-20 05:53 METAR KMDW 201053Z 27008KT 10SM CLR 08/02 A2986 RMK AO2 SLP113 T00780022 =
2018-10-20 04:53 METAR KMDW 200953Z 28009KT 10SM CLR 08/02 A2986 RMK AO2 SLP115 T00830022 =
2018-10-20 03:53 METAR KMDW 200853Z 28008KT 10SM CLR 09/03 A2986 RMK AO2 SLP115 T00890028 50002 =
2018-10-20 02:53 METAR KMDW 200753Z 28008KT 10SM CLR 09/04 A2986 RMK AO2 SLP115 T00940044 =
2018-10-20 01:53 METAR KMDW 200653Z 27008KT 10SM CLR 10/07 A2987 RMK AO2 SLP116 T01000067 =
2018-10-20 00:53 METAR KMDW 200553Z 27007KT 10SM CLR 10/08 A2986 RMK AO2 SLP113 T01000078 10117
                 20100 401170072 52005 =
2018-10-19 23:53 METAR KMDW 200453Z 26007KT 10SM CLR 11/08 A2985 RMK AO2 SLP109 T01110083 =
2018-10-19 22:53 METAR KMDW 200353Z 26008G23KT 10SM FEW019 12/09 A2985 RMK AO2 SLP109 T01170089 =

Support USWX by starting your Amazon purchase here.